createdAt,value
2018-06-13T00:02:01.284Z,61.00
2018-06-13T00:04:31.097Z,60.70
2018-06-13T00:06:59.225Z,60.80
2018-06-13T00:09:30.148Z,60.70
2018-06-13T00:11:57.794Z,60.60
2018-06-13T00:14:26.460Z,60.70
2018-06-13T00:17:10.085Z,61.20
2018-06-13T00:19:43.115Z,60.60
2018-06-13T00:22:14.589Z,60.60
2018-06-13T00:24:42.238Z,60.60
2018-06-13T00:27:12.541Z,60.60
2018-06-13T00:29:42.047Z,61.00
2018-06-13T00:32:12.116Z,60.60
2018-06-13T00:39:42.400Z,60.80
2018-06-13T00:42:15.068Z,64.60
2018-06-13T00:44:46.145Z,61.50
2018-06-13T00:47:13.712Z,61.40
2018-06-13T00:49:41.325Z,61.60
2018-06-13T00:52:09.322Z,62.10
2018-06-13T00:54:37.660Z,61.80
2018-06-13T00:57:05.342Z,62.00
2018-06-13T00:59:33.442Z,62.60
2018-06-13T01:02:01.286Z,62.90
2018-06-13T01:04:29.605Z,62.90
2018-06-13T01:06:57.453Z,63.30
2018-06-13T01:09:24.904Z,63.10
2018-06-13T01:11:52.582Z,63.00
2018-06-13T01:14:21.569Z,63.30
2018-06-13T01:16:49.298Z,64.60
2018-06-13T01:21:44.431Z,63.80
2018-06-13T01:24:11.978Z,63.50
2018-06-13T01:26:39.689Z,64.40
2018-06-13T01:29:07.199Z,63.80
2018-06-13T01:31:35.559Z,63.80
2018-06-13T01:34:03.171Z,64.00
2018-06-13T01:36:31.072Z,64.00
2018-06-13T01:38:58.965Z,64.80
2018-06-13T01:41:27.399Z,64.00
2018-06-13T01:43:55.026Z,64.30
2018-06-13T01:46:23.596Z,64.40
2018-06-13T01:48:51.752Z,65.00
2018-06-13T01:51:19.318Z,65.00
2018-06-13T01:56:15.238Z,64.40
2018-06-13T01:58:43.340Z,64.50
2018-06-13T02:03:39.253Z,64.10
2018-06-13T02:06:06.938Z,63.90
2018-06-13T02:08:35.517Z,64.40
2018-06-13T02:11:03.337Z,64.40
2018-06-13T02:13:31.553Z,64.40
2018-06-13T02:15:59.269Z,64.30
2018-06-13T02:18:26.829Z,64.90
2018-06-13T02:20:54.460Z,64.30
2018-06-13T02:23:21.922Z,64.30
2018-06-13T02:25:49.555Z,64.30
2018-06-13T02:28:17.214Z,65.40
2018-06-13T02:30:45.422Z,64.80
2018-06-13T02:33:13.259Z,64.50
2018-06-13T02:35:41.729Z,64.20
2018-06-13T02:38:09.291Z,64.20
2018-06-13T02:40:36.766Z,64.20
2018-06-13T02:43:04.399Z,64.10
2018-06-13T02:45:31.912Z,64.10
2018-06-13T02:47:59.441Z,64.50
2018-06-13T02:50:28.530Z,64.50
2018-06-13T03:36:37.590Z,65.60
2018-06-13T03:39:07.639Z,65.50
2018-06-13T03:41:36.185Z,65.50
2018-06-13T03:44:04.977Z,65.00
2018-06-13T03:49:00.041Z,64.10
2018-06-13T03:51:27.854Z,63.70
2018-06-13T03:53:56.066Z,63.70
2018-06-13T03:56:23.701Z,64.30
2018-06-13T03:58:51.241Z,63.70
2018-06-13T04:01:19.580Z,63.60
2018-06-13T04:03:47.127Z,63.60
2018-06-13T04:06:15.575Z,63.60
2018-06-13T04:08:43.138Z,63.10
2018-06-13T04:11:12.428Z,62.30
2018-06-13T04:13:40.104Z,62.10
2018-06-13T04:16:07.694Z,61.90
2018-06-13T04:18:37.363Z,61.60
2018-06-13T04:21:06.146Z,61.20
2018-06-13T04:23:34.168Z,61.40
2018-06-13T04:26:09.694Z,61.00
2018-06-13T04:28:38.484Z,61.20
2018-06-13T04:31:07.344Z,60.80
2018-06-13T04:33:34.904Z,61.00
2018-06-13T04:45:54.201Z,60.30
2018-06-13T04:48:21.771Z,60.00
2018-06-13T04:50:49.758Z,61.00
2018-06-13T04:55:44.659Z,60.00
2018-06-13T04:58:12.872Z,59.70
2018-06-13T05:00:40.711Z,59.30
2018-06-13T05:03:09.013Z,59.20
2018-06-13T05:05:37.527Z,59.00
2018-06-13T05:08:05.892Z,59.00
2018-06-13T05:10:35.213Z,58.80
2018-06-13T05:13:02.784Z,58.20
2018-06-13T05:15:31.661Z,58.40
2018-06-13T05:18:00.212Z,58.30
2018-06-13T05:20:30.502Z,57.90
2018-06-13T05:22:59.004Z,58.10
2018-06-13T05:25:27.274Z,58.10
2018-06-13T05:27:54.827Z,57.90
2018-06-13T05:30:22.478Z,58.20
2018-06-13T05:42:35.632Z,56.30
2018-06-13T05:45:03.299Z,55.70
2018-06-13T05:47:31.486Z,56.20
2018-06-13T05:49:59.197Z,55.40
2018-06-13T05:52:26.740Z,55.50
2018-06-13T05:54:54.809Z,54.50
2018-06-13T05:57:22.408Z,54.40
2018-06-13T05:59:50.785Z,54.90
2018-06-13T06:02:19.130Z,54.10
2018-06-13T06:04:47.310Z,53.30
2018-06-13T06:07:14.802Z,53.80
2018-06-13T06:09:42.430Z,52.80
2018-06-13T06:12:10.004Z,51.80
2018-06-13T06:14:38.272Z,51.70
2018-06-13T06:17:07.317Z,52.10
2018-06-13T06:19:35.186Z,51.40
2018-06-13T06:22:04.005Z,51.70
2018-06-13T06:24:31.680Z,50.50
2018-06-13T06:29:28.270Z,49.30
2018-06-13T06:34:23.265Z,47.80
2018-06-13T06:36:51.183Z,47.80
2018-06-13T06:39:18.801Z,47.00
2018-06-13T06:41:46.893Z,47.50
2018-06-13T06:44:15.288Z,46.60
2018-06-13T06:46:43.236Z,45.20
2018-06-13T06:59:01.901Z,45.40
2018-06-13T07:01:29.712Z,46.60
2018-06-13T07:03:58.149Z,45.30
2018-06-13T07:06:25.678Z,45.30
2018-06-13T07:08:53.171Z,44.40
2018-06-13T07:11:21.904Z,43.00
2018-06-13T07:13:50.609Z,42.80
2018-06-13T07:16:18.163Z,43.90
2018-06-13T07:18:45.714Z,45.00
2018-06-13T07:21:14.851Z,46.90
2018-06-13T07:23:43.941Z,47.80
2018-06-13T07:26:11.483Z,47.90
2018-06-13T07:28:39.584Z,48.90
2018-06-13T07:31:07.831Z,49.50
2018-06-13T07:33:36.519Z,49.80
2018-06-13T07:36:04.583Z,49.90
2018-06-13T07:38:32.148Z,50.20
2018-06-13T07:40:59.730Z,50.50
2018-06-13T07:53:17.270Z,50.40
2018-06-13T07:55:45.441Z,50.60
2018-06-13T07:58:13.041Z,51.30
2018-06-13T08:00:41.001Z,51.00
2018-06-13T08:03:08.530Z,51.10
2018-06-13T08:05:36.678Z,51.60
2018-06-13T08:08:05.510Z,52.10
2018-06-13T08:10:33.003Z,51.20
2018-06-13T08:13:01.521Z,50.80
2018-06-13T08:15:29.011Z,51.80
2018-06-13T08:17:57.513Z,52.10
2018-06-13T08:20:25.648Z,51.20
2018-06-13T08:22:54.539Z,51.50
2018-06-13T08:25:23.054Z,51.90
2018-06-13T08:27:50.881Z,51.80
2018-06-13T08:30:19.045Z,52.00
2018-06-13T08:32:47.137Z,52.50
2018-06-13T08:35:15.319Z,52.40
2018-06-13T08:37:42.980Z,51.80
2018-06-13T08:40:10.633Z,52.50
2018-06-13T08:42:38.165Z,52.60
2018-06-13T08:45:06.381Z,52.40
2018-06-13T08:47:34.096Z,52.90
2018-06-13T08:50:03.364Z,52.30
2018-06-13T08:52:31.002Z,52.20
2018-06-13T08:55:00.588Z,51.30
2018-06-13T08:57:28.668Z,52.10
2018-06-13T08:59:56.426Z,52.60
2018-06-13T09:02:24.289Z,52.20
2018-06-13T09:04:51.894Z,52.80
2018-06-13T09:07:20.429Z,52.50
2018-06-13T09:09:48.645Z,52.60
2018-06-13T09:12:17.409Z,52.90
2018-06-13T09:14:46.470Z,53.50
2018-06-13T09:17:13.926Z,52.70
2018-06-13T09:19:41.581Z,53.00
2018-06-13T09:22:10.405Z,53.00
2018-06-13T09:24:38.579Z,53.30
2018-06-13T09:27:07.237Z,51.80
2018-06-13T09:29:34.811Z,50.80
2018-06-13T09:32:02.996Z,50.90
2018-06-13T09:49:11.397Z,50.50
2018-06-13T09:51:39.133Z,51.10
2018-06-13T09:54:07.444Z,51.00
2018-06-13T09:56:35.007Z,50.80
2018-06-13T09:59:08.474Z,51.30
2018-06-13T10:01:41.838Z,49.50
2018-06-13T10:04:11.418Z,50.30
2018-06-13T10:06:39.744Z,49.90
2018-06-13T10:09:09.779Z,49.70
2018-06-13T10:11:37.304Z,50.10
2018-06-13T10:14:05.332Z,50.80
2018-06-13T10:16:33.980Z,51.30
2018-06-13T10:19:02.977Z,51.50
2018-06-13T10:21:34.036Z,50.90
2018-06-13T10:26:30.303Z,52.20
2018-06-13T10:28:58.183Z,51.10
2018-06-13T10:31:26.404Z,52.10
2018-06-13T10:33:54.749Z,50.90
2018-06-13T10:36:22.828Z,50.70
2018-06-13T10:38:50.375Z,51.10
2018-06-13T10:41:19.150Z,51.00
2018-06-13T10:43:46.771Z,50.70
2018-06-13T10:46:15.112Z,51.00
2018-06-13T10:48:43.105Z,51.70
2018-06-13T10:51:10.655Z,50.50
2018-06-13T10:53:38.849Z,51.00
2018-06-13T10:56:06.481Z,50.10
2018-06-13T10:58:35.114Z,50.30
2018-06-13T11:03:31.075Z,50.10
2018-06-13T11:06:01.421Z,50.10
2018-06-13T11:08:29.008Z,50.60
2018-06-13T11:10:56.704Z,50.70
2018-06-13T11:13:24.209Z,51.50
2018-06-13T11:15:52.407Z,50.80
2018-06-13T11:18:20.751Z,51.10
2018-06-13T11:20:49.335Z,50.80
2018-06-13T11:23:17.628Z,50.30
2018-06-13T11:25:45.263Z,50.60
2018-06-13T11:28:13.029Z,51.30
2018-06-13T11:35:36.361Z,50.10
2018-06-13T11:38:03.924Z,50.10
2018-06-13T11:42:59.436Z,50.20
2018-06-13T11:45:27.191Z,49.30
2018-06-13T11:47:54.758Z,50.70
2018-06-13T11:50:22.761Z,50.30
2018-06-13T11:52:50.790Z,50.60
2018-06-13T11:55:18.668Z,49.60
2018-06-13T11:57:46.399Z,50.00
2018-06-13T12:00:15.429Z,49.00
2018-06-13T12:02:43.269Z,49.10
2018-06-13T12:05:11.828Z,49.20
2018-06-13T12:07:39.792Z,49.50
2018-06-13T12:10:07.458Z,48.40
2018-06-13T12:12:35.157Z,48.50
2018-06-13T12:15:02.734Z,48.30
2018-06-13T12:17:31.329Z,48.40
2018-06-13T12:19:59.928Z,49.40
2018-06-13T12:22:27.538Z,49.90
2018-06-13T12:24:56.021Z,49.20
2018-06-13T12:27:23.589Z,48.70
2018-06-13T12:29:52.595Z,49.20
2018-06-13T12:32:20.278Z,49.80
2018-06-13T12:34:49.025Z,49.20
2018-06-13T12:37:17.046Z,49.60
2018-06-13T12:39:44.829Z,49.40
2018-06-13T12:42:13.359Z,49.50
2018-06-13T12:44:44.780Z,48.50
2018-06-13T12:47:17.150Z,49.80
2018-06-13T12:49:47.140Z,49.70
2018-06-13T13:05:19.848Z,48.80
2018-06-13T13:10:15.620Z,49.30
2018-06-13T13:12:45.183Z,48.80
2018-06-13T13:15:13.691Z,49.50
2018-06-13T13:17:42.252Z,50.00
2018-06-13T13:20:09.809Z,49.90
2018-06-13T13:22:37.388Z,50.20
2018-06-13T13:25:05.269Z,50.30
2018-06-13T13:27:32.866Z,49.90
2018-06-13T13:30:00.897Z,50.50
2018-06-13T13:32:28.459Z,50.50
2018-06-13T13:34:56.705Z,50.60
2018-06-13T13:37:25.300Z,50.60
2018-06-13T13:39:52.932Z,50.60
2018-06-13T13:42:20.592Z,50.60
2018-06-13T13:44:48.177Z,50.60
2018-06-13T13:47:15.718Z,50.50
2018-06-13T13:49:44.793Z,50.90
2018-06-13T13:52:13.013Z,50.60
2018-06-13T13:54:40.601Z,50.70
2018-06-13T13:57:08.348Z,50.20
2018-06-13T13:59:35.820Z,49.60
2018-06-13T14:02:03.519Z,50.10
2018-06-13T14:04:31.593Z,50.20
2018-06-13T14:06:59.954Z,50.20
2018-06-13T14:09:28.753Z,49.70
2018-06-13T14:24:15.808Z,49.20
2018-06-13T14:26:43.487Z,50.40
2018-06-13T14:29:11.259Z,49.80
2018-06-13T14:31:39.474Z,49.80
2018-06-13T14:34:07.785Z,49.80
2018-06-13T14:39:07.237Z,49.70
2018-06-13T14:41:36.865Z,49.70
2018-06-13T14:44:05.388Z,49.60
2018-06-13T14:58:47.009Z,48.70
2018-06-13T15:01:17.610Z,48.40
2018-06-13T15:03:45.711Z,48.50
2018-06-13T15:06:13.260Z,48.60
2018-06-13T15:08:41.515Z,48.90
2018-06-13T15:11:11.130Z,48.30
2018-06-13T15:13:39.873Z,48.10
2018-06-13T15:16:07.426Z,48.00
2018-06-13T15:18:36.135Z,48.30
2018-06-13T15:21:06.955Z,47.60
2018-06-13T15:26:04.625Z,47.30
2018-06-13T15:28:34.002Z,47.60
2018-06-13T15:31:01.546Z,47.20
2018-06-13T15:35:58.469Z,48.00
2018-06-13T15:38:26.018Z,47.40
2018-06-13T15:43:22.857Z,47.90
2018-06-13T15:45:50.660Z,47.90
2018-06-13T15:48:18.354Z,47.90
2018-06-13T15:50:46.496Z,47.80
2018-06-13T15:53:17.539Z,48.00
2018-06-13T15:55:45.399Z,48.50
2018-06-13T15:58:14.921Z,48.30
2018-06-13T16:00:43.108Z,47.80
2018-06-13T16:03:10.789Z,47.20
2018-06-13T16:05:39.346Z,47.50
2018-06-13T16:08:06.928Z,47.60
2018-06-13T16:10:34.595Z,48.30
2018-06-13T16:13:03.261Z,48.40
2018-06-13T16:15:33.676Z,48.40
2018-06-13T16:20:29.169Z,48.60
2018-06-13T16:22:56.898Z,48.60
2018-06-13T16:25:24.496Z,49.00
2018-06-13T16:27:53.161Z,49.10
2018-06-13T16:30:21.656Z,48.80
2018-06-13T16:32:50.746Z,48.90
2018-06-13T16:35:18.284Z,48.50
2018-06-13T16:40:14.854Z,48.60
2018-06-13T16:45:13.142Z,48.60
2018-06-13T16:47:40.910Z,48.70
2018-06-13T16:50:19.873Z,48.80
2018-06-13T16:52:59.349Z,48.80
2018-06-13T16:55:30.316Z,49.00
2018-06-13T17:00:28.223Z,48.80
2018-06-13T17:02:56.339Z,48.90
2018-06-13T17:05:24.512Z,48.80
2018-06-13T17:07:52.682Z,49.00
2018-06-13T17:10:22.489Z,49.10
2018-06-13T17:12:53.736Z,49.30
2018-06-13T17:15:25.628Z,49.20
2018-06-13T17:17:53.295Z,49.00
2018-06-13T17:20:21.448Z,49.00
2018-06-13T17:22:49.043Z,49.00
2018-06-13T17:25:16.599Z,49.00
2018-06-13T17:27:48.325Z,49.50
2018-06-13T17:30:18.772Z,49.90
2018-06-13T17:32:47.830Z,49.80
2018-06-13T17:35:15.588Z,49.80
2018-06-13T17:37:46.030Z,49.80
2018-06-13T17:40:13.882Z,49.90
2018-06-13T17:42:42.142Z,49.90
2018-06-13T17:45:10.583Z,50.00
2018-06-13T17:47:38.116Z,50.10
2018-06-13T17:50:08.177Z,50.30
2018-06-13T18:09:48.211Z,49.80
2018-06-13T18:12:16.854Z,50.00
2018-06-13T18:17:11.900Z,50.70
2018-06-13T18:22:07.047Z,51.20
2018-06-13T18:24:34.710Z,51.30
2018-06-13T18:27:02.986Z,51.20
2018-06-13T18:29:30.676Z,51.00
2018-06-13T18:31:58.345Z,51.30
2018-06-13T18:34:26.764Z,51.10
2018-06-13T18:39:23.755Z,50.90
2018-06-13T18:41:53.581Z,51.10
2018-06-13T18:49:21.327Z,51.70
2018-06-13T18:51:48.953Z,51.90
2018-06-13T18:54:16.488Z,52.10
2018-06-13T18:56:44.067Z,52.10
2018-06-13T19:01:39.327Z,52.60
2018-06-13T19:04:07.606Z,52.50
2018-06-13T19:06:36.320Z,52.70
2018-06-13T19:09:08.400Z,53.00
2018-06-13T19:11:36.739Z,53.20
2018-06-13T19:14:05.291Z,53.70
2018-06-13T19:19:01.356Z,53.70
2018-06-13T19:26:27.870Z,53.70
2018-06-13T19:28:57.291Z,53.90
2018-06-13T19:31:25.922Z,53.90
2018-06-13T19:33:54.507Z,53.90
2018-06-13T19:38:51.284Z,54.40
2018-06-13T19:41:18.857Z,54.60
2018-06-13T19:43:47.240Z,54.60
2018-06-13T19:46:17.006Z,54.80
2018-06-13T19:48:46.495Z,54.80
2018-06-13T19:51:14.669Z,55.00
2018-06-13T19:53:47.862Z,55.10
2018-06-13T19:58:45.884Z,55.30
2018-06-13T20:13:33.021Z,55.90
2018-06-13T20:16:06.587Z,56.10
2018-06-13T20:18:39.751Z,56.00
2018-06-13T20:21:09.393Z,54.10
2018-06-13T20:26:11.941Z,56.50
2018-06-13T20:28:46.943Z,56.60
2018-06-13T20:31:34.771Z,57.00
2018-06-13T20:34:02.501Z,57.30
2018-06-13T20:36:30.668Z,57.60
2018-06-13T20:38:58.932Z,57.60
2018-06-13T20:41:26.552Z,58.20
2018-06-13T20:43:54.833Z,58.60
2018-06-13T20:48:53.122Z,58.80
2018-06-13T20:51:25.205Z,58.40
2018-06-13T20:53:53.619Z,58.60
2018-06-13T21:03:46.320Z,59.60
2018-06-13T21:06:13.919Z,59.50
2018-06-13T21:08:44.184Z,59.60
2018-06-13T21:11:16.320Z,60.10
2018-06-13T21:13:45.338Z,59.70
2018-06-13T21:18:41.646Z,60.20
2018-06-13T21:21:10.187Z,60.20
2018-06-13T21:23:37.745Z,60.20
2018-06-13T21:26:06.589Z,60.20
2018-06-13T21:31:02.312Z,60.50
2018-06-13T21:33:29.915Z,60.50
2018-06-13T21:35:58.134Z,61.10
2018-06-13T21:38:25.657Z,60.80
2018-06-13T21:40:54.430Z,60.80
2018-06-13T21:43:21.938Z,60.30
2018-06-13T21:45:49.429Z,60.50
2018-06-13T21:48:17.146Z,60.50
2018-06-13T21:50:44.758Z,60.70
2018-06-13T21:53:13.184Z,61.00
2018-06-13T21:58:08.237Z,60.40
2018-06-13T22:08:02.009Z,61.00
2018-06-13T22:10:29.640Z,61.00
2018-06-13T22:15:26.289Z,61.40
2018-06-13T22:17:56.266Z,61.50
2018-06-13T22:22:51.449Z,61.00
2018-06-13T22:25:19.629Z,60.80
2018-06-13T22:27:47.878Z,60.90
2018-06-13T22:30:15.714Z,61.10
2018-06-13T22:32:44.517Z,61.10
2018-06-13T22:37:39.540Z,61.30
2018-06-13T22:40:15.166Z,60.80
2018-06-13T22:42:48.254Z,60.30
2018-06-13T22:47:44.627Z,61.10
2018-06-13T22:50:12.267Z,60.80
2018-06-13T22:52:41.105Z,60.90
2018-06-13T22:55:08.629Z,60.80
2018-06-13T23:00:06.767Z,60.80
2018-06-13T23:02:34.435Z,60.70
2018-06-13T23:05:02.114Z,60.50
2018-06-13T23:07:29.694Z,60.20
2018-06-13T23:09:57.382Z,60.50
2018-06-13T23:12:25.810Z,61.00
2018-06-13T23:14:53.409Z,60.20
2018-06-13T23:17:21.027Z,59.80
2018-06-13T23:19:48.720Z,59.50
2018-06-13T23:22:16.829Z,59.70
2018-06-13T23:24:45.259Z,59.50
2018-06-13T23:27:12.867Z,59.50
2018-06-13T23:29:40.373Z,59.80
2018-06-13T23:32:09.000Z,59.50
2018-06-13T23:34:36.540Z,60.00
2018-06-13T23:37:04.658Z,59.80
2018-06-13T23:39:32.780Z,59.60
2018-06-13T23:44:29.364Z,59.50
2018-06-13T23:46:56.921Z,59.50
2018-06-13T23:49:24.749Z,60.10
2018-06-13T23:54:20.456Z,59.20
2018-06-13T23:56:48.071Z,59.20
2018-06-13T23:59:15.704Z,59.10
